sensor_id;sensor_type;location;lat;lon;timestamp;temperature;humidity
4306;DHT22;2166;49.926;8.608;2024-02-26T00:01:13;8.50;81.40
4306;DHT22;2166;49.926;8.608;2024-02-26T00:03:41;8.40;81.50
4306;DHT22;2166;49.926;8.608;2024-02-26T00:06:11;8.30;81.80
4306;DHT22;2166;49.926;8.608;2024-02-26T00:08:41;8.20;81.90
4306;DHT22;2166;49.926;8.608;2024-02-26T00:11:10;8.20;81.90
4306;DHT22;2166;49.926;8.608;2024-02-26T00:13:39;8.20;82.00
4306;DHT22;2166;49.926;8.608;2024-02-26T00:16:07;8.20;82.00
4306;DHT22;2166;49.926;8.608;2024-02-26T00:18:35;8.20;82.10
4306;DHT22;2166;49.926;8.608;2024-02-26T00:21:04;8.20;81.90
4306;DHT22;2166;49.926;8.608;2024-02-26T00:23:32;8.20;82.00
4306;DHT22;2166;49.926;8.608;2024-02-26T00:26:00;8.10;82.00
4306;DHT22;2166;49.926;8.608;2024-02-26T00:28:31;8.10;81.90
4306;DHT22;2166;49.926;8.608;2024-02-26T00:30:59;8.10;82.00
4306;DHT22;2166;49.926;8.608;2024-02-26T00:33:28;8.10;82.00
4306;DHT22;2166;49.926;8.608;2024-02-26T00:35:56;8.10;81.90
4306;DHT22;2166;49.926;8.608;2024-02-26T00:38:25;8.10;82.00
4306;DHT22;2166;49.926;8.608;2024-02-26T00:40:53;8.10;82.00
4306;DHT22;2166;49.926;8.608;2024-02-26T00:43:21;8.10;82.10
4306;DHT22;2166;49.926;8.608;2024-02-26T00:45:51;8.10;82.10
4306;DHT22;2166;49.926;8.608;2024-02-26T00:48:19;8.10;82.00
4306;DHT22;2166;49.926;8.608;2024-02-26T00:50:48;8.10;82.10
4306;DHT22;2166;49.926;8.608;2024-02-26T00:53:16;8.10;82.00
4306;DHT22;2166;49.926;8.608;2024-02-26T00:55:44;8.00;82.10
4306;DHT22;2166;49.926;8.608;2024-02-26T00:58:12;8.00;82.10
4306;DHT22;2166;49.926;8.608;2024-02-26T01:00:41;8.00;82.00
4306;DHT22;2166;49.926;8.608;2024-02-26T01:03:10;8.00;82.00
4306;DHT22;2166;49.926;8.608;2024-02-26T01:05:39;8.00;82.00
4306;DHT22;2166;49.926;8.608;2024-02-26T01:08:07;8.00;81.90
4306;DHT22;2166;49.926;8.608;2024-02-26T01:10:35;8.00;82.00
4306;DHT22;2166;49.926;8.608;2024-02-26T01:13:04;8.00;81.90
4306;DHT22;2166;49.926;8.608;2024-02-26T01:15:32;7.90;81.80
4306;DHT22;2166;49.926;8.608;2024-02-26T01:18:00;8.00;81.80
4306;DHT22;2166;49.926;8.608;2024-02-26T01:20:30;8.10;82.10
4306;DHT22;2166;49.926;8.608;2024-02-26T01:22:58;8.10;81.80
4306;DHT22;2166;49.926;8.608;2024-02-26T01:25:26;8.20;81.80
4306;DHT22;2166;49.926;8.608;2024-02-26T01:27:54;8.20;81.80
4306;DHT22;2166;49.926;8.608;2024-02-26T01:30:23;8.20;81.70
4306;DHT22;2166;49.926;8.608;2024-02-26T01:32:51;8.20;81.80
4306;DHT22;2166;49.926;8.608;2024-02-26T01:35:19;8.30;81.70
4306;DHT22;2166;49.926;8.608;2024-02-26T01:37:49;8.30;81.70
4306;DHT22;2166;49.926;8.608;2024-02-26T01:40:17;8.20;81.60
4306;DHT22;2166;49.926;8.608;2024-02-26T01:42:47;8.20;81.80
4306;DHT22;2166;49.926;8.608;2024-02-26T01:45:16;8.10;81.90
4306;DHT22;2166;49.926;8.608;2024-02-26T01:47:52;8.10;82.20
4306;DHT22;2166;49.926;8.608;2024-02-26T01:50:20;8.10;82.00
4306;DHT22;2166;49.926;8.608;2024-02-26T01:52:51;8.10;82.00
4306;DHT22;2166;49.926;8.608;2024-02-26T01:55:22;8.00;82.10
4306;DHT22;2166;49.926;8.608;2024-02-26T01:57:52;8.10;81.90
4306;DHT22;2166;49.926;8.608;2024-02-26T02:00:21;8.10;82.00
4306;DHT22;2166;49.926;8.608;2024-02-26T02:02:50;8.10;82.00
4306;DHT22;2166;49.926;8.608;2024-02-26T02:05:20;8.10;82.00
4306;DHT22;2166;49.926;8.608;2024-02-26T02:07:51;8.10;82.00
4306;DHT22;2166;49.926;8.608;2024-02-26T02:10:20;8.10;81.90
4306;DHT22;2166;49.926;8.608;2024-02-26T02:12:52;8.00;81.80
4306;DHT22;2166;49.926;8.608;2024-02-26T02:15:21;8.10;82.00
4306;DHT22;2166;49.926;8.608;2024-02-26T02:17:49;8.10;81.90
4306;DHT22;2166;49.926;8.608;2024-02-26T02:20:18;8.10;82.00
4306;DHT22;2166;49.926;8.608;2024-02-26T02:22:47;8.10;82.00
4306;DHT22;2166;49.926;8.608;2024-02-26T02:25:16;8.10;81.90
4306;DHT22;2166;49.926;8.608;2024-02-26T02:27:44;8.00;82.00
4306;DHT22;2166;49.926;8.608;2024-02-26T02:30:13;8.00;81.90
4306;DHT22;2166;49.926;8.608;2024-02-26T02:32:42;8.00;81.90
4306;DHT22;2166;49.926;8.608;2024-02-26T02:35:11;8.00;81.80
4306;DHT22;2166;49.926;8.608;2024-02-26T02:37:39;8.00;81.80
4306;DHT22;2166;49.926;8.608;2024-02-26T02:40:09;8.10;81.80
4306;DHT22;2166;49.926;8.608;2024-02-26T02:42:37;8.10;81.80
4306;DHT22;2166;49.926;8.608;2024-02-26T02:45:06;8.20;81.80
4306;DHT22;2166;49.926;8.608;2024-02-26T02:47:36;8.20;81.70
4306;DHT22;2166;49.926;8.608;2024-02-26T02:50:05;8.30;81.70
4306;DHT22;2166;49.926;8.608;2024-02-26T02:52:34;8.30;81.70
4306;DHT22;2166;49.926;8.608;2024-02-26T02:55:02;8.30;81.70
4306;DHT22;2166;49.926;8.608;2024-02-26T02:57:32;8.20;81.70
4306;DHT22;2166;49.926;8.608;2024-02-26T03:00:01;8.20;81.70
4306;DHT22;2166;49.926;8.608;2024-02-26T03:02:31;8.20;81.80
4306;DHT22;2166;49.926;8.608;2024-02-26T03:04:59;8.30;81.70
4306;DHT22;2166;49.926;8.608;2024-02-26T03:07:27;8.30;81.70
4306;DHT22;2166;49.926;8.608;2024-02-26T03:09:54;8.40;81.70
4306;DHT22;2166;49.926;8.608;2024-02-26T03:12:23;8.40;81.60
4306;DHT22;2166;49.926;8.608;2024-02-26T03:14:53;8.40;81.60
4306;DHT22;2166;49.926;8.608;2024-02-26T03:17:21;8.40;81.60
4306;DHT22;2166;49.926;8.608;2024-02-26T03:19:51;8.40;81.70
4306;DHT22;2166;49.926;8.608;2024-02-26T03:22:21;8.30;81.70
4306;DHT22;2166;49.926;8.608;2024-02-26T03:24:49;8.30;81.70
4306;DHT22;2166;49.926;8.608;2024-02-26T03:27:17;8.20;81.80
4306;DHT22;2166;49.926;8.608;2024-02-26T03:29:46;8.20;81.70
4306;DHT22;2166;49.926;8.608;2024-02-26T03:32:16;8.20;81.80
4306;DHT22;2166;49.926;8.608;2024-02-26T03:34:44;8.10;81.30
4306;DHT22;2166;49.926;8.608;2024-02-26T03:37:12;7.90;81.10
4306;DHT22;2166;49.926;8.608;2024-02-26T03:39:40;7.80;80.70
4306;DHT22;2166;49.926;8.608;2024-02-26T03:42:08;7.70;78.40
4306;DHT22;2166;49.926;8.608;2024-02-26T03:44:37;7.50;77.90
4306;DHT22;2166;49.926;8.608;2024-02-26T03:47:05;7.40;76.70
4306;DHT22;2166;49.926;8.608;2024-02-26T03:49:34;7.30;75.80
4306;DHT22;2166;49.926;8.608;2024-02-26T03:52:03;7.10;74.00
4306;DHT22;2166;49.926;8.608;2024-02-26T03:54:31;7.00;73.10
4306;DHT22;2166;49.926;8.608;2024-02-26T03:56:59;6.90;72.20
4306;DHT22;2166;49.926;8.608;2024-02-26T03:59:28;6.90;71.60
4306;DHT22;2166;49.926;8.608;2024-02-26T04:01:56;6.90;71.40
4306;DHT22;2166;49.926;8.608;2024-02-26T04:04:24;6.90;70.30
4306;DHT22;2166;49.926;8.608;2024-02-26T04:06:54;7.00;70.50
4306;DHT22;2166;49.926;8.608;2024-02-26T04:09:22;7.10;69.90
4306;DHT22;2166;49.926;8.608;2024-02-26T04:11:50;7.20;68.60
4306;DHT22;2166;49.926;8.608;2024-02-26T04:14:18;7.30;67.70
4306;DHT22;2166;49.926;8.608;2024-02-26T04:16:46;7.40;69.50
4306;DHT22;2166;49.926;8.608;2024-02-26T04:19:18;7.40;69.20
4306;DHT22;2166;49.926;8.608;2024-02-26T04:21:46;7.30;68.30
4306;DHT22;2166;49.926;8.608;2024-02-26T04:24:17;7.30;68.00
4306;DHT22;2166;49.926;8.608;2024-02-26T04:26:45;7.30;67.00
4306;DHT22;2166;49.926;8.608;2024-02-26T04:29:13;7.20;64.60
4306;DHT22;2166;49.926;8.608;2024-02-26T04:31:41;7.10;63.10
4306;DHT22;2166;49.926;8.608;2024-02-26T04:34:10;7.10;62.60
4306;DHT22;2166;49.926;8.608;2024-02-26T04:36:40;7.10;61.20
4306;DHT22;2166;49.926;8.608;2024-02-26T04:39:09;7.10;60.60
4306;DHT22;2166;49.926;8.608;2024-02-26T04:41:39;7.10;58.60
4306;DHT22;2166;49.926;8.608;2024-02-26T04:44:07;7.10;57.60
4306;DHT22;2166;49.926;8.608;2024-02-26T04:46:37;7.00;58.40
4306;DHT22;2166;49.926;8.608;2024-02-26T04:49:05;6.90;57.80
4306;DHT22;2166;49.926;8.608;2024-02-26T04:51:33;6.80;57.40
4306;DHT22;2166;49.926;8.608;2024-02-26T04:54:02;6.60;56.40
4306;DHT22;2166;49.926;8.608;2024-02-26T04:56:30;6.60;55.30
4306;DHT22;2166;49.926;8.608;2024-02-26T04:58:59;6.40;55.20
4306;DHT22;2166;49.926;8.608;2024-02-26T05:01:28;6.40;54.40
4306;DHT22;2166;49.926;8.608;2024-02-26T05:03:56;6.30;54.20
4306;DHT22;2166;49.926;8.608;2024-02-26T05:06:24;6.30;53.60
4306;DHT22;2166;49.926;8.608;2024-02-26T05:08:53;6.30;53.10
4306;DHT22;2166;49.926;8.608;2024-02-26T05:11:21;6.30;52.80
4306;DHT22;2166;49.926;8.608;2024-02-26T05:13:49;6.20;52.80
4306;DHT22;2166;49.926;8.608;2024-02-26T05:16:19;6.20;52.60
4306;DHT22;2166;49.926;8.608;2024-02-26T05:18:48;6.20;52.10
4306;DHT22;2166;49.926;8.608;2024-02-26T05:21:16;6.20;52.40
4306;DHT22;2166;49.926;8.608;2024-02-26T05:23:45;6.20;52.10
4306;DHT22;2166;49.926;8.608;2024-02-26T05:26:19;6.20;52.00
4306;DHT22;2166;49.926;8.608;2024-02-26T05:28:47;6.20;51.90
4306;DHT22;2166;49.926;8.608;2024-02-26T05:31:16;6.20;51.50
4306;DHT22;2166;49.926;8.608;2024-02-26T05:33:47;6.20;51.80
4306;DHT22;2166;49.926;8.608;2024-02-26T05:36:18;6.20;51.90
4306;DHT22;2166;49.926;8.608;2024-02-26T05:38:48;6.10;51.90
4306;DHT22;2166;49.926;8.608;2024-02-26T05:41:16;6.10;51.70
4306;DHT22;2166;49.926;8.608;2024-02-26T05:43:49;6.10;51.60
4306;DHT22;2166;49.926;8.608;2024-02-26T05:46:18;6.00;51.10
4306;DHT22;2166;49.926;8.608;2024-02-26T05:48:50;6.00;50.80
4306;DHT22;2166;49.926;8.608;2024-02-26T05:51:19;6.00;50.90
4306;DHT22;2166;49.926;8.608;2024-02-26T05:53:47;6.00;50.50
4306;DHT22;2166;49.926;8.608;2024-02-26T05:56:21;6.00;50.50
4306;DHT22;2166;49.926;8.608;2024-02-26T05:58:50;5.90;50.70
4306;DHT22;2166;49.926;8.608;2024-02-26T06:01:19;5.90;50.60
4306;DHT22;2166;49.926;8.608;2024-02-26T06:03:49;5.90;50.10
4306;DHT22;2166;49.926;8.608;2024-02-26T06:06:17;5.90;49.80
4306;DHT22;2166;49.926;8.608;2024-02-26T06:08:46;5.90;49.60
4306;DHT22;2166;49.926;8.608;2024-02-26T06:11:14;5.90;49.80
4306;DHT22;2166;49.926;8.608;2024-02-26T06:13:42;5.90;49.60
4306;DHT22;2166;49.926;8.608;2024-02-26T06:16:10;5.90;49.20
4306;DHT22;2166;49.926;8.608;2024-02-26T06:18:39;5.80;49.10
4306;DHT22;2166;49.926;8.608;2024-02-26T06:21:10;5.80;49.10
4306;DHT22;2166;49.926;8.608;2024-02-26T06:23:39;5.80;48.90
4306;DHT22;2166;49.926;8.608;2024-02-26T06:26:07;5.80;49.00
4306;DHT22;2166;49.926;8.608;2024-02-26T06:28:37;5.80;48.70
4306;DHT22;2166;49.926;8.608;2024-02-26T06:31:07;5.80;48.50
4306;DHT22;2166;49.926;8.608;2024-02-26T06:33:36;5.80;48.20
4306;DHT22;2166;49.926;8.608;2024-02-26T06:36:05;5.80;48.00
4306;DHT22;2166;49.926;8.608;2024-02-26T06:38:34;5.80;47.90
4306;DHT22;2166;49.926;8.608;2024-02-26T06:41:03;5.80;47.80
4306;DHT22;2166;49.926;8.608;2024-02-26T06:43:31;5.80;47.80
4306;DHT22;2166;49.926;8.608;2024-02-26T06:45:59;5.70;47.80
4306;DHT22;2166;49.926;8.608;2024-02-26T06:48:28;5.70;47.80
4306;DHT22;2166;49.926;8.608;2024-02-26T06:50:56;5.70;47.70
4306;DHT22;2166;49.926;8.608;2024-02-26T06:53:24;5.70;47.40
4306;DHT22;2166;49.926;8.608;2024-02-26T06:55:54;5.70;47.20
4306;DHT22;2166;49.926;8.608;2024-02-26T06:58:22;5.70;47.20
4306;DHT22;2166;49.926;8.608;2024-02-26T07:00:50;5.70;47.30
4306;DHT22;2166;49.926;8.608;2024-02-26T07:03:19;5.60;47.30
4306;DHT22;2166;49.926;8.608;2024-02-26T07:05:49;5.60;47.00
4306;DHT22;2166;49.926;8.608;2024-02-26T07:08:18;5.60;46.80
4306;DHT22;2166;49.926;8.608;2024-02-26T07:10:46;5.60;46.90
4306;DHT22;2166;49.926;8.608;2024-02-26T07:13:16;5.60;46.80
4306;DHT22;2166;49.926;8.608;2024-02-26T07:15:44;5.50;46.80
4306;DHT22;2166;49.926;8.608;2024-02-26T07:18:12;5.60;46.60
4306;DHT22;2166;49.926;8.608;2024-02-26T07:20:41;5.60;46.40
4306;DHT22;2166;49.926;8.608;2024-02-26T07:23:09;5.60;46.40
4306;DHT22;2166;49.926;8.608;2024-02-26T07:25:37;5.60;46.20
4306;DHT22;2166;49.926;8.608;2024-02-26T07:28:05;5.60;46.10
4306;DHT22;2166;49.926;8.608;2024-02-26T07:30:35;5.60;46.10
4306;DHT22;2166;49.926;8.608;2024-02-26T07:33:04;5.60;46.40
4306;DHT22;2166;49.926;8.608;2024-02-26T07:35:32;5.60;46.50
4306;DHT22;2166;49.926;8.608;2024-02-26T07:38:00;5.60;46.40
4306;DHT22;2166;49.926;8.608;2024-02-26T07:40:29;5.60;46.20
4306;DHT22;2166;49.926;8.608;2024-02-26T07:42:57;5.60;46.40
4306;DHT22;2166;49.926;8.608;2024-02-26T07:45:26;5.70;46.10
4306;DHT22;2166;49.926;8.608;2024-02-26T07:47:55;5.70;46.00
4306;DHT22;2166;49.926;8.608;2024-02-26T07:50:24;5.70;46.00
4306;DHT22;2166;49.926;8.608;2024-02-26T07:52:52;5.70;46.00
4306;DHT22;2166;49.926;8.608;2024-02-26T07:55:21;5.80;46.10
4306;DHT22;2166;49.926;8.608;2024-02-26T07:57:50;5.80;46.10
4306;DHT22;2166;49.926;8.608;2024-02-26T08:00:19;5.90;46.20
4306;DHT22;2166;49.926;8.608;2024-02-26T08:02:47;5.90;46.50
4306;DHT22;2166;49.926;8.608;2024-02-26T08:05:17;5.90;46.70
4306;DHT22;2166;49.926;8.608;2024-02-26T08:07:46;6.00;46.70
4306;DHT22;2166;49.926;8.608;2024-02-26T08:10:15;6.00;46.70
4306;DHT22;2166;49.926;8.608;2024-02-26T08:12:44;6.10;46.70
4306;DHT22;2166;49.926;8.608;2024-02-26T08:15:13;6.10;47.10
4306;DHT22;2166;49.926;8.608;2024-02-26T08:17:42;6.10;47.00
4306;DHT22;2166;49.926;8.608;2024-02-26T08:20:11;6.20;47.10
4306;DHT22;2166;49.926;8.608;2024-02-26T08:22:41;6.30;47.30
4306;DHT22;2166;49.926;8.608;2024-02-26T08:25:10;6.40;47.20
4306;DHT22;2166;49.926;8.608;2024-02-26T08:27:38;6.50;47.10
4306;DHT22;2166;49.926;8.608;2024-02-26T08:30:07;6.60;47.20
4306;DHT22;2166;49.926;8.608;2024-02-26T08:32:37;6.60;48.10
4306;DHT22;2166;49.926;8.608;2024-02-26T08:35:06;6.60;48.80
4306;DHT22;2166;49.926;8.608;2024-02-26T08:37:34;6.60;48.50
4306;DHT22;2166;49.926;8.608;2024-02-26T08:40:05;6.60;48.50
4306;DHT22;2166;49.926;8.608;2024-02-26T08:42:37;6.70;48.50
4306;DHT22;2166;49.926;8.608;2024-02-26T08:45:08;6.70;48.80
4306;DHT22;2166;49.926;8.608;2024-02-26T08:47:37;6.60;48.80
4306;DHT22;2166;49.926;8.608;2024-02-26T08:50:06;6.60;48.90
4306;DHT22;2166;49.926;8.608;2024-02-26T08:52:36;6.60;48.50
4306;DHT22;2166;49.926;8.608;2024-02-26T08:55:06;6.70;48.30
4306;DHT22;2166;49.926;8.608;2024-02-26T08:57:36;6.70;48.50
4306;DHT22;2166;49.926;8.608;2024-02-26T09:00:06;6.80;48.80
4306;DHT22;2166;49.926;8.608;2024-02-26T09:02:35;6.90;48.40
4306;DHT22;2166;49.926;8.608;2024-02-26T09:05:06;7.10;47.90
4306;DHT22;2166;49.926;8.608;2024-02-26T09:07:34;7.30;47.90
4306;DHT22;2166;49.926;8.608;2024-02-26T09:10:03;7.50;48.00
4306;DHT22;2166;49.926;8.608;2024-02-26T09:12:34;7.70;49.10
4306;DHT22;2166;49.926;8.608;2024-02-26T09:15:03;7.80;50.00
4306;DHT22;2166;49.926;8.608;2024-02-26T09:17:31;7.90;52.00
4306;DHT22;2166;49.926;8.608;2024-02-26T09:19:59;7.90;53.60
4306;DHT22;2166;49.926;8.608;2024-02-26T09:22:28;7.90;53.30
4306;DHT22;2166;49.926;8.608;2024-02-26T09:24:56;8.10;52.90
4306;DHT22;2166;49.926;8.608;2024-02-26T09:27:24;8.10;55.70
4306;DHT22;2166;49.926;8.608;2024-02-26T09:29:54;7.90;56.20
4306;DHT22;2166;49.926;8.608;2024-02-26T09:32:23;7.90;56.40
4306;DHT22;2166;49.926;8.608;2024-02-26T09:34:52;7.80;55.00
4306;DHT22;2166;49.926;8.608;2024-02-26T09:37:20;7.80;54.90
4306;DHT22;2166;49.926;8.608;2024-02-26T09:39:49;7.80;54.10
4306;DHT22;2166;49.926;8.608;2024-02-26T09:42:18;7.90;54.50
4306;DHT22;2166;49.926;8.608;2024-02-26T09:44:50;7.90;55.40
4306;DHT22;2166;49.926;8.608;2024-02-26T09:47:22;8.00;55.70
4306;DHT22;2166;49.926;8.608;2024-02-26T09:49:52;8.00;55.30
4306;DHT22;2166;49.926;8.608;2024-02-26T09:52:21;8.00;56.20
4306;DHT22;2166;49.926;8.608;2024-02-26T09:54:51;7.90;55.80
4306;DHT22;2166;49.926;8.608;2024-02-26T09:57:20;8.00;55.90
4306;DHT22;2166;49.926;8.608;2024-02-26T09:59:53;8.00;55.90
4306;DHT22;2166;49.926;8.608;2024-02-26T10:02:23;8.20;55.30
4306;DHT22;2166;49.926;8.608;2024-02-26T10:04:52;8.60;56.30
4306;DHT22;2166;49.926;8.608;2024-02-26T10:07:23;9.00;58.60
4306;DHT22;2166;49.926;8.608;2024-02-26T10:09:52;9.40;63.10
4306;DHT22;2166;49.926;8.608;2024-02-26T10:12:20;9.60;67.70
4306;DHT22;2166;49.926;8.608;2024-02-26T10:14:49;9.70;69.10
4306;DHT22;2166;49.926;8.608;2024-02-26T10:17:19;9.80;68.50
4306;DHT22;2166;49.926;8.608;2024-02-26T10:19:49;9.90;69.30
4306;DHT22;2166;49.926;8.608;2024-02-26T10:22:22;10.00;69.70
4306;DHT22;2166;49.926;8.608;2024-02-26T10:24:50;10.10;71.90
4306;DHT22;2166;49.926;8.608;2024-02-26T10:27:18;10.30;71.10
4306;DHT22;2166;49.926;8.608;2024-02-26T10:29:47;10.70;73.40
4306;DHT22;2166;49.926;8.608;2024-02-26T10:32:15;11.10;73.20
4306;DHT22;2166;49.926;8.608;2024-02-26T10:34:44;11.70;76.10
4306;DHT22;2166;49.926;8.608;2024-02-26T10:37:14;12.50;79.20
4306;DHT22;2166;49.926;8.608;2024-02-26T10:39:47;13.30;79.40
4306;DHT22;2166;49.926;8.608;2024-02-26T10:42:15;13.60;79.60
4306;DHT22;2166;49.926;8.608;2024-02-26T10:44:46;13.60;77.90
4306;DHT22;2166;49.926;8.608;2024-02-26T10:47:16;13.70;78.10
4306;DHT22;2166;49.926;8.608;2024-02-26T10:49:47;13.70;78.30
4306;DHT22;2166;49.926;8.608;2024-02-26T10:52:19;13.50;77.40
4306;DHT22;2166;49.926;8.608;2024-02-26T10:54:47;13.30;77.90
4306;DHT22;2166;49.926;8.608;2024-02-26T10:57:18;13.00;77.90
4306;DHT22;2166;49.926;8.608;2024-02-26T10:59:47;12.80;78.40
4306;DHT22;2166;49.926;8.608;2024-02-26T11:02:16;12.50;77.30
4306;DHT22;2166;49.926;8.608;2024-02-26T11:04:44;12.40;77.90
4306;DHT22;2166;49.926;8.608;2024-02-26T11:07:13;12.30;77.20
4306;DHT22;2166;49.926;8.608;2024-02-26T11:09:45;12.40;77.20
4306;DHT22;2166;49.926;8.608;2024-02-26T11:12:37;12.50;77.90
4306;DHT22;2166;49.926;8.608;2024-02-26T11:15:08;12.80;75.80
4306;DHT22;2166;49.926;8.608;2024-02-26T11:17:38;13.00;77.00
4306;DHT22;2166;49.926;8.608;2024-02-26T11:20:10;13.10;76.80
4306;DHT22;2166;49.926;8.608;2024-02-26T11:22:40;13.10;77.90
4306;DHT22;2166;49.926;8.608;2024-02-26T11:25:10;13.30;78.90
4306;DHT22;2166;49.926;8.608;2024-02-26T11:27:43;13.30;77.70
4306;DHT22;2166;49.926;8.608;2024-02-26T11:30:13;13.60;78.30
4306;DHT22;2166;49.926;8.608;2024-02-26T11:32:44;14.10;77.70
4306;DHT22;2166;49.926;8.608;2024-02-26T11:35:14;14.60;77.90
4306;DHT22;2166;49.926;8.608;2024-02-26T11:37:53;14.60;76.20
4306;DHT22;2166;49.926;8.608;2024-02-26T11:40:23;14.50;77.80
4306;DHT22;2166;49.926;8.608;2024-02-26T11:42:53;14.30;76.70
4306;DHT22;2166;49.926;8.608;2024-02-26T11:45:48;14.10;78.20
4306;DHT22;2166;49.926;8.608;2024-02-26T11:48:25;14.10;77.60
4306;DHT22;2166;49.926;8.608;2024-02-26T11:50:54;13.90;77.40
4306;DHT22;2166;49.926;8.608;2024-02-26T11:53:24;13.80;77.30
4306;DHT22;2166;49.926;8.608;2024-02-26T11:56:15;13.70;77.60
4306;DHT22;2166;49.926;8.608;2024-02-26T11:58:48;13.90;77.30
4306;DHT22;2166;49.926;8.608;2024-02-26T12:04:18;14.60;76.50
4306;DHT22;2166;49.926;8.608;2024-02-26T12:06:54;14.70;76.70
4306;DHT22;2166;49.926;8.608;2024-02-26T12:09:34;15.10;77.40
4306;DHT22;2166;49.926;8.608;2024-02-26T12:12:05;15.30;77.10
4306;DHT22;2166;49.926;8.608;2024-02-26T12:14:37;15.00;75.20
4306;DHT22;2166;49.926;8.608;2024-02-26T12:17:07;14.60;77.30
4306;DHT22;2166;49.926;8.608;2024-02-26T12:19:36;14.60;77.40
4306;DHT22;2166;49.926;8.608;2024-02-26T12:22:13;14.80;77.90
4306;DHT22;2166;49.926;8.608;2024-02-26T12:24:41;14.60;76.60
4306;DHT22;2166;49.926;8.608;2024-02-26T12:27:11;14.70;77.90
4306;DHT22;2166;49.926;8.608;2024-02-26T12:29:39;14.80;77.70
4306;DHT22;2166;49.926;8.608;2024-02-26T12:32:08;15.20;76.90
4306;DHT22;2166;49.926;8.608;2024-02-26T12:34:37;15.50;76.60
4306;DHT22;2166;49.926;8.608;2024-02-26T12:37:06;15.90;76.20
4306;DHT22;2166;49.926;8.608;2024-02-26T12:39:37;16.10;76.40
4306;DHT22;2166;49.926;8.608;2024-02-26T12:42:06;16.20;75.90
4306;DHT22;2166;49.926;8.608;2024-02-26T12:44:36;16.30;75.90
4306;DHT22;2166;49.926;8.608;2024-02-26T12:47:05;16.60;75.10
4306;DHT22;2166;49.926;8.608;2024-02-26T12:49:33;16.60;73.30
4306;DHT22;2166;49.926;8.608;2024-02-26T12:52:02;16.50;74.10
4306;DHT22;2166;49.926;8.608;2024-02-26T12:54:31;16.50;74.50
4306;DHT22;2166;49.926;8.608;2024-02-26T12:57:02;16.20;74.80
4306;DHT22;2166;49.926;8.608;2024-02-26T12:59:31;16.10;73.70
4306;DHT22;2166;49.926;8.608;2024-02-26T13:02:02;15.90;74.20
4306;DHT22;2166;49.926;8.608;2024-02-26T13:04:34;15.90;74.80
4306;DHT22;2166;49.926;8.608;2024-02-26T13:07:04;15.90;74.70
4306;DHT22;2166;49.926;8.608;2024-02-26T13:09:33;16.30;75.00
4306;DHT22;2166;49.926;8.608;2024-02-26T13:12:04;16.80;74.40
4306;DHT22;2166;49.926;8.608;2024-02-26T13:14:33;17.10;72.00
4306;DHT22;2166;49.926;8.608;2024-02-26T13:17:03;17.10;73.80
4306;DHT22;2166;49.926;8.608;2024-02-26T13:19:31;17.20;73.30
4306;DHT22;2166;49.926;8.608;2024-02-26T13:22:04;17.30;74.20
4306;DHT22;2166;49.926;8.608;2024-02-26T13:24:33;17.50;74.60
4306;DHT22;2166;49.926;8.608;2024-02-26T13:27:02;17.40;71.80
4306;DHT22;2166;49.926;8.608;2024-02-26T13:29:33;17.30;71.40
4306;DHT22;2166;49.926;8.608;2024-02-26T13:32:03;17.20;73.00
4306;DHT22;2166;49.926;8.608;2024-02-26T13:34:33;17.30;71.70
4306;DHT22;2166;49.926;8.608;2024-02-26T13:37:02;17.60;72.80
4306;DHT22;2166;49.926;8.608;2024-02-26T13:39:32;18.60;70.40
4306;DHT22;2166;49.926;8.608;2024-02-26T13:42:02;19.80;66.10
4306;DHT22;2166;49.926;8.608;2024-02-26T13:44:31;21.10;63.30
4306;DHT22;2166;49.926;8.608;2024-02-26T13:47:00;22.30;59.50
4306;DHT22;2166;49.926;8.608;2024-02-26T13:49:30;22.80;57.60
4306;DHT22;2166;49.926;8.608;2024-02-26T13:51:58;23.30;56.50
4306;DHT22;2166;49.926;8.608;2024-02-26T13:54:27;23.70;54.70
4306;DHT22;2166;49.926;8.608;2024-02-26T13:56:55;24.00;56.90
4306;DHT22;2166;49.926;8.608;2024-02-26T13:59:23;24.40;54.20
4306;DHT22;2166;49.926;8.608;2024-02-26T14:01:51;24.40;52.90
4306;DHT22;2166;49.926;8.608;2024-02-26T14:04:21;24.10;53.30
4306;DHT22;2166;49.926;8.608;2024-02-26T14:06:51;24.40;52.30
4306;DHT22;2166;49.926;8.608;2024-02-26T14:09:20;24.20;52.50
4306;DHT22;2166;49.926;8.608;2024-02-26T14:11:58;23.90;53.10
4306;DHT22;2166;49.926;8.608;2024-02-26T14:14:27;23.70;53.20
4306;DHT22;2166;49.926;8.608;2024-02-26T14:16:56;22.90;54.40
4306;DHT22;2166;49.926;8.608;2024-02-26T14:19:24;21.90;55.80
4306;DHT22;2166;49.926;8.608;2024-02-26T14:21:54;20.50;58.60
4306;DHT22;2166;49.926;8.608;2024-02-26T14:24:22;19.40;62.20
4306;DHT22;2166;49.926;8.608;2024-02-26T14:26:51;18.40;64.40
4306;DHT22;2166;49.926;8.608;2024-02-26T14:29:20;17.60;66.60
4306;DHT22;2166;49.926;8.608;2024-02-26T14:31:48;16.90;68.30
4306;DHT22;2166;49.926;8.608;2024-02-26T14:34:16;16.40;72.50
4306;DHT22;2166;49.926;8.608;2024-02-26T14:36:46;16.20;73.60
4306;DHT22;2166;49.926;8.608;2024-02-26T14:39:15;16.10;73.80
4306;DHT22;2166;49.926;8.608;2024-02-26T14:41:43;15.80;75.30
4306;DHT22;2166;49.926;8.608;2024-02-26T14:44:12;15.70;75.20
4306;DHT22;2166;49.926;8.608;2024-02-26T14:46:41;15.60;77.20
4306;DHT22;2166;49.926;8.608;2024-02-26T14:49:09;15.30;75.50
4306;DHT22;2166;49.926;8.608;2024-02-26T14:51:40;15.10;76.30
4306;DHT22;2166;49.926;8.608;2024-02-26T14:54:09;14.80;77.90
4306;DHT22;2166;49.926;8.608;2024-02-26T14:56:40;14.60;78.80
4306;DHT22;2166;49.926;8.608;2024-02-26T14:59:08;14.60;78.00
4306;DHT22;2166;49.926;8.608;2024-02-26T15:01:36;14.60;78.80
4306;DHT22;2166;49.926;8.608;2024-02-26T15:04:05;14.60;78.70
4306;DHT22;2166;49.926;8.608;2024-02-26T15:06:34;14.70;77.70
4306;DHT22;2166;49.926;8.608;2024-02-26T15:09:03;14.90;76.70
4306;DHT22;2166;49.926;8.608;2024-02-26T15:11:32;15.20;76.70
4306;DHT22;2166;49.926;8.608;2024-02-26T15:14:02;15.50;75.00
4306;DHT22;2166;49.926;8.608;2024-02-26T15:16:30;15.50;74.40
4306;DHT22;2166;49.926;8.608;2024-02-26T15:18:59;15.40;74.40
4306;DHT22;2166;49.926;8.608;2024-02-26T15:21:28;15.30;75.00
4306;DHT22;2166;49.926;8.608;2024-02-26T15:23:56;15.00;75.90
4306;DHT22;2166;49.926;8.608;2024-02-26T15:26:34;14.70;76.80
4306;DHT22;2166;49.926;8.608;2024-02-26T15:29:03;14.40;78.30
4306;DHT22;2166;49.926;8.608;2024-02-26T15:31:32;14.20;78.50
4306;DHT22;2166;49.926;8.608;2024-02-26T15:34:00;14.00;79.70
4306;DHT22;2166;49.926;8.608;2024-02-26T15:36:28;13.80;80.00
4306;DHT22;2166;49.926;8.608;2024-02-26T15:38:57;13.70;79.80
4306;DHT22;2166;49.926;8.608;2024-02-26T15:41:25;13.60;80.10
4306;DHT22;2166;49.926;8.608;2024-02-26T15:43:54;13.60;79.90
4306;DHT22;2166;49.926;8.608;2024-02-26T15:46:23;13.70;80.20
4306;DHT22;2166;49.926;8.608;2024-02-26T15:48:52;14.00;79.80
4306;DHT22;2166;49.926;8.608;2024-02-26T15:51:21;14.40;79.00
4306;DHT22;2166;49.926;8.608;2024-02-26T15:53:51;14.80;78.90
4306;DHT22;2166;49.926;8.608;2024-02-26T15:56:20;15.40;76.60
4306;DHT22;2166;49.926;8.608;2024-02-26T15:58:52;15.60;75.00
4306;DHT22;2166;49.926;8.608;2024-02-26T16:01:20;15.40;74.70
4306;DHT22;2166;49.926;8.608;2024-02-26T16:03:53;15.20;75.70
4306;DHT22;2166;49.926;8.608;2024-02-26T16:06:28;14.90;77.40
4306;DHT22;2166;49.926;8.608;2024-02-26T16:08:58;14.50;78.30
4306;DHT22;2166;49.926;8.608;2024-02-26T16:11:26;14.20;79.10
4306;DHT22;2166;49.926;8.608;2024-02-26T16:14:05;14.00;79.90
4306;DHT22;2166;49.926;8.608;2024-02-26T16:16:42;13.70;80.00
4306;DHT22;2166;49.926;8.608;2024-02-26T16:19:15;13.50;80.20
4306;DHT22;2166;49.926;8.608;2024-02-26T16:21:47;13.30;80.20
4306;DHT22;2166;49.926;8.608;2024-02-26T16:24:15;13.00;80.10
4306;DHT22;2166;49.926;8.608;2024-02-26T16:26:43;12.90;79.60
4306;DHT22;2166;49.926;8.608;2024-02-26T16:29:11;12.80;79.30